Time;durP1;ratioP1;P1;durP2;ratioP2;P2;SDS_P1;SDS_P2;PMS_P1;PMS_P2;Temp;Humidity;BMP_temperature;BMP_pressure;BME280_temperature;BME280_humidity;BME280_pressure;Samples;Min_cycle;Max_cycle;Signal;HPM_P1;HPM_P2
2024/04/23 00:00:10;;;;;;;2.05;1.95;;;;;;;;;;5402043;26;20315;-82
2024/04/23 00:02:38;;;;;;;3.00;2.90;;;;;;;;;;5396949;26;20377;-80
2024/04/23 00:05:05;;;;;;;2.45;2.35;;;;;;;;;;5407679;26;20230;-82
2024/04/23 00:07:33;;;;;;;1.38;1.27;;;;;;;;;;5399243;26;20277;-82
2024/04/23 00:10:01;;;;;;;2.03;1.90;;;;;;;;;;5407383;26;20230;-81
2024/04/23 00:12:28;;;;;;;2.15;2.00;;;;;;;;;;5411529;26;20278;-81
2024/04/23 00:14:56;;;;;;;2.10;2.03;;;;;;;;;;5419920;26;20260;-81
2024/04/23 00:17:23;;;;;;;7.03;1.92;;;;;;;;;;5420582;26;20226;-80
2024/04/23 00:19:51;;;;;;;5.57;4.13;;;;;;;;;;5410848;26;20316;-82
2024/04/23 00:22:18;;;;;;;1.25;1.25;;;;;;;;;;5412166;26;20314;-80
2024/04/23 00:24:46;;;;;;;1.80;1.67;;;;;;;;;;5388360;26;20234;-80
2024/04/23 00:27:13;;;;;;;2.47;2.38;;;;;;;;;;5395434;26;20368;-81
2024/04/23 00:29:40;;;;;;;2.90;2.70;;;;;;;;;;5409721;26;20285;-82
2024/04/23 00:32:08;;;;;;;3.65;3.42;;;;;;;;;;5409648;26;20217;-81
2024/04/23 00:34:35;;;;;;;3.55;3.28;;;;;;;;;;5428652;26;20221;-80
2024/04/23 00:37:03;;;;;;;2.45;2.35;;;;;;;;;;5397264;26;20226;-81
2024/04/23 00:39:30;;;;;;;13.75;5.97;;;;;;;;;;5380616;26;20219;-78
2024/04/23 00:41:59;;;;;;;3.42;3.22;;;;;;;;;;5390975;26;20218;-79
2024/04/23 00:44:26;;;;;;;3.53;3.10;;;;;;;;;;5408863;26;20251;-78
2024/04/23 00:46:53;;;;;;;1.00;1.00;;;;;;;;;;5411386;26;20281;-79
2024/04/23 00:49:22;;;;;;;3.60;3.40;;;;;;;;;;5405998;26;21805;-79
2024/04/23 00:51:50;;;;;;;2.90;2.72;;;;;;;;;;5393393;26;20317;-80
2024/04/23 00:54:18;;;;;;;3.15;3.00;;;;;;;;;;5381184;26;20255;-80
2024/04/23 00:56:46;;;;;;;2.58;2.47;;;;;;;;;;5418220;26;20248;-81
2024/04/23 00:59:14;;;;;;;2.05;1.98;;;;;;;;;;5417487;26;20292;-81
2024/04/23 01:01:42;;;;;;;2.95;2.83;;;;;;;;;;5414241;26;20389;-81
2024/04/23 01:04:09;;;;;;;4.38;3.97;;;;;;;;;;5423074;26;20221;-80
2024/04/23 01:06:37;;;;;;;1.83;1.75;;;;;;;;;;5424452;26;20221;-80
2024/04/23 01:09:05;;;;;;;2.15;2.05;;;;;;;;;;5407859;26;20278;-80
2024/04/23 01:11:34;;;;;;;10.27;4.43;;;;;;;;;;5409664;26;20303;-80
2024/04/23 01:14:03;;;;;;;3.38;3.15;;;;;;;;;;5413352;26;20248;-81
2024/04/23 01:16:34;;;;;;;3.80;3.60;;;;;;;;;;5391896;26;20211;-81
2024/04/23 01:19:02;;;;;;;5.88;5.38;;;;;;;;;;5412081;26;20257;-80
2024/04/23 01:21:34;;;;;;;3.75;3.42;;;;;;;;;;5391564;26;20274;-81
2024/04/23 01:24:04;;;;;;;3.08;2.85;;;;;;;;;;5422664;26;20272;-81
2024/04/23 01:26:31;;;;;;;3.25;3.15;;;;;;;;;;5398615;26;20238;-81
2024/04/23 01:28:59;;;;;;;3.42;3.22;;;;;;;;;;5411520;26;20278;-81
2024/04/23 01:31:27;;;;;;;3.03;2.83;;;;;;;;;;5412200;26;20260;-80
2024/04/23 01:33:55;;;;;;;1.95;1.85;;;;;;;;;;5418119;26;20242;-82
2024/04/23 01:36:22;;;;;;;6.25;5.57;;;;;;;;;;5398634;26;20263;-82
2024/04/23 01:38:51;;;;;;;1.63;1.52;;;;;;;;;;5413567;26;20233;-82
2024/04/23 01:41:21;;;;;;;3.72;3.58;;;;;;;;;;5398184;26;20305;-81
2024/04/23 01:43:49;;;;;;;3.80;3.50;;;;;;;;;;5409725;26;20278;-82
2024/04/23 01:46:18;;;;;;;4.30;4.10;;;;;;;;;;5391969;26;20265;-82
2024/04/23 01:48:46;;;;;;;1.63;1.52;;;;;;;;;;5401010;26;20319;-80
2024/04/23 01:51:13;;;;;;;10.63;4.22;;;;;;;;;;5425679;26;20225;-83
2024/04/23 01:53:41;;;;;;;7.22;5.13;;;;;;;;;;5393574;26;20222;-81
2024/04/23 01:56:08;;;;;;;1.60;1.60;;;;;;;;;;5384589;26;20258;-82
2024/04/23 01:58:36;;;;;;;1.67;1.58;;;;;;;;;;5399557;26;20221;-82
2024/04/23 02:01:04;;;;;;;3.20;2.95;;;;;;;;;;5422177;26;20496;-80
2024/04/23 02:03:32;;;;;;;4.25;3.95;;;;;;;;;;5413158;26;20213;-82
2024/04/23 02:06:00;;;;;;;3.75;3.53;;;;;;;;;;5416085;26;20213;-81
2024/04/23 02:08:27;;;;;;;1.20;1.10;;;;;;;;;;5411181;26;20278;-80
2024/04/23 02:10:55;;;;;;;4.78;4.47;;;;;;;;;;5402423;26;20214;-81
2024/04/23 02:13:22;;;;;;;2.47;1.98;;;;;;;;;;5402898;26;20284;-81
2024/04/23 02:15:50;;;;;;;3.25;3.08;;;;;;;;;;5416961;26;20217;-82
2024/04/23 02:18:18;;;;;;;1.92;1.83;;;;;;;;;;5413025;26;20376;-80
2024/04/23 02:20:47;;;;;;;5.95;4.60;;;;;;;;;;5415868;26;20306;-81
2024/04/23 02:23:14;;;;;;;1.45;1.45;;;;;;;;;;5412440;26;20276;-82
2024/04/23 02:25:42;;;;;;;3.40;3.20;;;;;;;;;;5405370;26;20260;-81
2024/04/23 02:28:09;;;;;;;4.78;4.57;;;;;;;;;;5408624;26;20230;-81
2024/04/23 02:30:37;;;;;;;3.05;2.90;;;;;;;;;;5404463;26;20217;-80
2024/04/23 02:33:10;;;;;;;2.60;1.63;;;;;;;;;;5409157;26;20561;-80
2024/04/23 02:35:39;;;;;;;3.15;2.95;;;;;;;;;;5394704;26;20289;-81
2024/04/23 02:38:06;;;;;;;10.43;3.25;;;;;;;;;;5393711;26;20230;-82
2024/04/23 02:40:34;;;;;;;2.65;2.55;;;;;;;;;;5394435;26;20312;-80
2024/04/23 02:43:01;;;;;;;2.72;2.53;;;;;;;;;;5393516;26;20268;-81
2024/04/23 02:45:31;;;;;;;7.53;3.88;;;;;;;;;;5394657;26;20218;-82
2024/04/23 02:47:59;;;;;;;3.33;3.13;;;;;;;;;;5385234;26;20256;-83
2024/04/23 02:50:27;;;;;;;8.15;7.57;;;;;;;;;;5394735;26;20218;-82
2024/04/23 02:52:55;;;;;;;2.05;1.95;;;;;;;;;;5405028;26;20221;-82
2024/04/23 02:55:23;;;;;;;0.60;0.60;;;;;;;;;;5423290;26;20218;-82
2024/04/23 02:57:50;;;;;;;3.50;3.33;;;;;;;;;;5408486;26;20297;-85
2024/04/23 03:00:18;;;;;;;1.92;1.85;;;;;;;;;;5423027;26;20272;-81
2024/04/23 03:02:45;;;;;;;2.97;2.78;;;;;;;;;;5406693;26;20261;-85
2024/04/23 03:05:13;;;;;;;4.30;2.47;;;;;;;;;;5419776;26;20244;-84
2024/04/23 03:07:40;;;;;;;1.67;1.58;;;;;;;;;;5406453;26;20270;-81
2024/04/23 03:10:08;;;;;;;14.40;4.10;;;;;;;;;;5423636;26;20217;-82
2024/04/23 03:12:35;;;;;;;3.70;3.40;;;;;;;;;;5396859;26;20226;-84
2024/04/23 03:15:03;;;;;;;5.10;4.57;;;;;;;;;;5397058;26;20261;-83
2024/04/23 03:17:31;;;;;;;4.35;2.28;;;;;;;;;;5411470;26;20251;-85
2024/04/23 03:19:58;;;;;;;2.47;2.38;;;;;;;;;;5399047;26;20222;-85
2024/04/23 03:22:26;;;;;;;5.20;3.08;;;;;;;;;;5418616;26;20225;-84
2024/04/23 03:24:53;;;;;;;2.28;2.17;;;;;;;;;;5414054;26;20296;-84
2024/04/23 03:27:21;;;;;;;6.68;6.18;;;;;;;;;;5406545;26;20234;-85
2024/04/23 03:29:48;;;;;;;2.90;2.80;;;;;;;;;;5401274;26;20269;-84
2024/04/23 03:32:16;;;;;;;3.25;3.05;;;;;;;;;;5412440;26;20266;-84
2024/04/23 03:34:43;;;;;;;8.63;4.38;;;;;;;;;;5398249;26;20467;-85
2024/04/23 03:37:11;;;;;;;3.15;2.92;;;;;;;;;;5395075;26;20223;-85
2024/04/23 03:39:38;;;;;;;4.53;4.22;;;;;;;;;;5394987;26;20279;-85
2024/04/23 03:42:05;;;;;;;2.63;2.42;;;;;;;;;;5398719;26;20226;-84
2024/04/23 03:44:33;;;;;;;3.25;2.95;;;;;;;;;;5393171;26;20229;-88
2024/04/23 03:47:05;;;;;;;1.80;1.70;;;;;;;;;;5392052;26;20260;-86
2024/04/23 03:49:33;;;;;;;5.20;4.18;;;;;;;;;;5393867;26;20401;-86
2024/04/23 03:52:10;;;;;;;3.00;2.88;;;;;;;;;;5394593;26;20339;-87
2024/04/23 03:54:38;;;;;;;2.05;1.95;;;;;;;;;;5395129;26;20218;-87
2024/04/23 03:57:05;;;;;;;5.95;4.45;;;;;;;;;;5385679;26;20265;-89
2024/04/23 03:59:34;;;;;;;3.33;3.00;;;;;;;;;;5395865;26;20529;-88
2024/04/23 04:07:34;;;;;;;5.20;4.53;;;;;;;;;;5406644;26;20249;-83
2024/04/23 04:10:01;;;;;;;28.00;7.03;;;;;;;;;;5437004;26;20228;-85
2024/04/23 04:12:28;;;;;;;3.65;3.45;;;;;;;;;;5420173;26;20265;-85
2024/04/23 04:14:56;;;;;;;3.00;2.83;;;;;;;;;;5396705;26;20244;-85
2024/04/23 04:17:24;;;;;;;3.50;3.30;;;;;;;;;;5401437;26;20222;-84
2024/04/23 04:19:51;;;;;;;5.05;4.65;;;;;;;;;;5409476;26;20365;-83
2024/04/23 04:22:19;;;;;;;3.58;3.38;;;;;;;;;;5394125;26;20311;-86
2024/04/23 04:24:46;;;;;;;7.78;7.13;;;;;;;;;;5393125;26;20248;-87
2024/04/23 04:27:15;;;;;;;4.50;4.10;;;;;;;;;;5397872;26;20237;-86
2024/04/23 04:29:43;;;;;;;5.95;4.72;;;;;;;;;;5411911;26;20244;-87
2024/04/23 04:32:10;;;;;;;1.15;1.15;;;;;;;;;;5396891;26;20217;-87
2024/04/23 04:34:38;;;;;;;3.15;2.88;;;;;;;;;;5405713;26;20241;-87
2024/04/23 04:37:05;;;;;;;1.15;1.15;;;;;;;;;;5394968;26;20256;-86
2024/04/23 04:39:39;;;;;;;6.82;3.25;;;;;;;;;;5389898;26;20223;-83
2024/04/23 04:42:06;;;;;;;4.68;4.38;;;;;;;;;;5405311;26;20285;-88
2024/04/23 04:44:33;;;;;;;4.80;4.50;;;;;;;;;;5404800;26;20268;-87
2024/04/23 04:47:01;;;;;;;3.47;3.30;;;;;;;;;;5407414;26;20277;-87
2024/04/23 04:49:31;;;;;;;11.88;4.05;;;;;;;;;;5408502;26;20388;-86
2024/04/23 04:51:59;;;;;;;2.63;2.53;;;;;;;;;;5405721;26;20233;-86
2024/04/23 04:54:27;;;;;;;3.47;3.28;;;;;;;;;;5400585;26;20245;-88
2024/04/23 04:56:54;;;;;;;3.35;3.15;;;;;;;;;;5416843;26;20261;-91
2024/04/23 04:59:21;;;;;;;6.38;5.97;;;;;;;;;;5397361;26;20450;-87
2024/04/23 05:01:49;;;;;;;5.75;4.93;;;;;;;;;;5394643;26;20216;-86
2024/04/23 05:04:17;;;;;;;4.50;4.20;;;;;;;;;;5394737;26;20270;-87
2024/04/23 05:06:45;;;;;;;4.35;3.95;;;;;;;;;;5408615;26;20350;-89
2024/04/23 05:11:48;;;;;;;11.18;7.20;;;;;;;;;;5564822;21;20254;-87
2024/04/23 05:19:44;;;;;;;3.53;3.30;;;;;;;;;;6156566;21;20277;-87
2024/04/23 05:22:12;;;;;;;4.82;4.55;;;;;;;;;;5335987;26;20250;-87
2024/04/23 05:24:39;;;;;;;4.25;3.92;;;;;;;;;;5336569;26;20276;-86
2024/04/23 05:27:07;;;;;;;6.78;3.95;;;;;;;;;;5464118;21;20321;-91
2024/04/23 05:29:34;;;;;;;3.25;3.05;;;;;;;;;;5293744;27;20232;-91
2024/04/23 05:34:52;;;;;;;3.10;2.92;;;;;;;;;;5494223;21;20266;-82
2024/04/23 05:37:20;;;;;;;5.50;5.07;;;;;;;;;;5364840;26;20264;-82
2024/04/23 05:39:47;;;;;;;8.52;5.80;;;;;;;;;;5366576;26;20282;-83
2024/04/23 05:42:15;;;;;;;6.70;6.22;;;;;;;;;;5367823;26;20278;-83
2024/04/23 05:44:42;;;;;;;7.68;7.00;;;;;;;;;;5358032;26;20542;-80
2024/04/23 05:47:10;;;;;;;5.25;4.95;;;;;;;;;;5355318;26;20304;-84
2024/04/23 05:49:56;;;;;;;4.05;3.75;;;;;;;;;;5355911;26;20261;-81
2024/04/23 05:52:43;;;;;;;4.28;4.05;;;;;;;;;;5357601;26;20219;-82
2024/04/23 05:55:29;;;;;;;2.17;2.08;;;;;;;;;;5357226;26;20214;-84
2024/04/23 05:57:57;;;;;;;2.97;2.75;;;;;;;;;;5345403;26;20219;-81
2024/04/23 06:00:25;;;;;;;1.38;1.27;;;;;;;;;;5357518;26;20227;-85
2024/04/23 06:02:53;;;;;;;1.45;1.45;;;;;;;;;;5386602;26;20487;-83
2024/04/23 06:05:21;;;;;;;1.35;1.33;;;;;;;;;;5358013;26;20257;-85
2024/04/23 06:07:49;;;;;;;4.25;3.95;;;;;;;;;;5385718;26;20297;-87
2024/04/23 06:10:18;;;;;;;2.60;2.40;;;;;;;;;;5363024;26;20309;-83
2024/04/23 06:12:46;;;;;;;1.00;1.00;;;;;;;;;;5367272;26;20223;-85
2024/04/23 06:15:17;;;;;;;1.13;1.13;;;;;;;;;;5366783;26;20215;-85
2024/04/23 06:17:45;;;;;;;2.80;2.70;;;;;;;;;;5366617;26;20235;-87
2024/04/23 06:20:15;;;;;;;2.65;2.55;;;;;;;;;;5360903;26;20231;-82
2024/04/23 06:22:48;;;;;;;0.70;0.70;;;;;;;;;;5362853;26;20381;-84
2024/04/23 06:25:16;;;;;;;2.05;1.95;;;;;;;;;;5362646;26;20216;-90
2024/04/23 06:27:44;;;;;;;1.13;1.13;;;;;;;;;;5358556;26;20267;-87
2024/04/23 06:30:15;;;;;;;0.70;0.70;;;;;;;;;;5358499;26;20216;-85
2024/04/23 06:32:42;;;;;;;0.70;0.70;;;;;;;;;;5357497;26;20404;-83
2024/04/23 06:35:10;;;;;;;1.50;1.45;;;;;;;;;;5357411;26;20224;-85
2024/04/23 06:37:40;;;;;;;0.60;0.60;;;;;;;;;;5359374;26;20352;-84
2024/04/23 06:40:08;;;;;;;1.90;1.80;;;;;;;;;;5357236;26;20261;-83
2024/04/23 06:42:37;;;;;;;0.70;0.70;;;;;;;;;;5357352;26;20242;-86
2024/04/23 06:45:05;;;;;;;0.60;0.60;;;;;;;;;;5385322;26;20261;-84
2024/04/23 06:47:35;;;;;;;3.80;3.63;;;;;;;;;;5361379;26;20226;-84
2024/04/23 06:50:05;;;;;;;1.67;1.58;;;;;;;;;;5362638;26;20296;-84
2024/04/23 06:52:33;;;;;;;0.80;0.80;;;;;;;;;;5360642;26;20238;-82
2024/04/23 06:55:02;;;;;;;0.80;0.80;;;;;;;;;;5360456;26;20363;-83
2024/04/23 06:57:30;;;;;;;1.50;1.50;;;;;;;;;;5388780;26;20270;-82
2024/04/23 06:59:57;;;;;;;0.50;0.50;;;;;;;;;;5359379;26;20263;-78
2024/04/23 07:02:25;;;;;;;0.60;0.60;;;;;;;;;;5359416;26;20223;-80
2024/04/23 07:04:52;;;;;;;1.15;1.15;;;;;;;;;;5353363;26;20227;-81
2024/04/23 07:07:20;;;;;;;0.70;0.70;;;;;;;;;;5357993;26;20267;-79
2024/04/23 07:09:48;;;;;;;0.80;0.80;;;;;;;;;;5359320;26;20211;-78
2024/04/23 07:12:15;;;;;;;0.70;0.70;;;;;;;;;;5358885;26;20327;-80
2024/04/23 07:14:43;;;;;;;0.75;0.75;;;;;;;;;;5359552;26;20215;-81
2024/04/23 07:17:10;;;;;;;0.60;0.60;;;;;;;;;;5359475;26;20487;-79
2024/04/23 07:19:38;;;;;;;0.80;0.80;;;;;;;;;;5361088;26;20254;-78
2024/04/23 07:22:06;;;;;;;0.63;0.63;;;;;;;;;;5359325;26;20324;-80
2024/04/23 07:24:33;;;;;;;2.97;2.88;;;;;;;;;;5358681;26;20263;-83
2024/04/23 07:27:01;;;;;;;0.70;0.70;;;;;;;;;;5355845;26;20271;-80
2024/04/23 07:29:28;;;;;;;0.93;0.93;;;;;;;;;;5358318;26;20269;-83
2024/04/23 07:31:56;;;;;;;0.80;0.80;;;;;;;;;;5359363;26;20363;-78
2024/04/23 07:34:23;;;;;;;2.25;2.08;;;;;;;;;;5352947;26;20284;-83
2024/04/23 07:36:51;;;;;;;1.27;1.23;;;;;;;;;;5358821;26;20246;-80
2024/04/23 07:39:19;;;;;;;1.15;1.15;;;;;;;;;;5359008;26;20419;-79
2024/04/23 07:41:46;;;;;;;0.98;0.98;;;;;;;;;;5359933;26;20308;-80
2024/04/23 07:44:13;;;;;;;0.60;0.60;;;;;;;;;;5358798;26;20471;-79
2024/04/23 07:46:42;;;;;;;0.75;0.75;;;;;;;;;;5363402;26;20222;-85
2024/04/23 07:49:10;;;;;;;0.85;0.85;;;;;;;;;;5368062;26;20269;-79
2024/04/23 07:51:38;;;;;;;0.90;0.90;;;;;;;;;;5363998;26;20230;-82
2024/04/23 07:54:05;;;;;;;0.82;0.82;;;;;;;;;;5368108;26;20257;-83
2024/04/23 07:56:32;;;;;;;0.80;0.80;;;;;;;;;;5368416;26;20227;-80
2024/04/23 07:59:00;;;;;;;0.70;0.70;;;;;;;;;;5360341;26;20219;-85
2024/04/23 08:01:28;;;;;;;0.65;0.65;;;;;;;;;;5358802;26;20376;-84
2024/04/23 08:03:55;;;;;;;0.70;0.70;;;;;;;;;;5360173;26;20301;-82
2024/04/23 08:06:22;;;;;;;0.80;0.80;;;;;;;;;;5358428;26;20531;-82
2024/04/23 08:08:50;;;;;;;1.33;1.33;;;;;;;;;;5360561;26;20289;-81
2024/04/23 08:11:17;;;;;;;0.80;0.80;;;;;;;;;;5367858;26;20272;-79
2024/04/23 08:13:45;;;;;;;1.50;1.40;;;;;;;;;;5363978;26;20510;-84
2024/04/23 08:16:15;;;;;;;1.97;1.87;;;;;;;;;;5367589;26;20768;-83
2024/04/23 08:18:43;;;;;;;1.00;1.00;;;;;;;;;;5362774;26;20533;-84
2024/04/23 08:21:11;;;;;;;1.93;1.83;;;;;;;;;;5358291;26;20505;-80
2024/04/23 08:23:38;;;;;;;0.83;0.83;;;;;;;;;;5358801;26;20501;-81
2024/04/23 08:26:14;;;;;;;0.90;0.90;;;;;;;;;;5359503;26;20475;-88
2024/04/23 08:28:44;;;;;;;0.90;0.90;;;;;;;;;;5362026;26;20487;-86
2024/04/23 08:31:12;;;;;;;1.20;1.20;;;;;;;;;;5362311;26;20467;-83
2024/04/23 08:33:39;;;;;;;1.00;1.00;;;;;;;;;;5362898;26;20487;-83
2024/04/23 08:36:07;;;;;;;0.90;0.90;;;;;;;;;;5361382;26;20457;-83
2024/04/23 08:38:35;;;;;;;0.90;0.90;;;;;;;;;;5357409;26;20644;-81
2024/04/23 08:41:04;;;;;;;0.90;0.90;;;;;;;;;;5359606;26;20436;-86
2024/04/23 08:43:33;;;;;;;1.97;1.87;;;;;;;;;;5362582;26;20433;-84
2024/04/23 08:48:29;;;;;;;1.00;1.00;;;;;;;;;;5297627;26;20451;-81
2024/04/23 08:51:00;;;;;;;0.90;0.90;;;;;;;;;;5285731;27;20429;-84
2024/04/23 08:53:29;;;;;;;0.80;0.80;;;;;;;;;;5298655;27;20571;-84
2024/04/23 08:56:00;;;;;;;1.15;1.13;;;;;;;;;;5290611;27;20558;-88
2024/04/23 08:58:28;;;;;;;0.80;0.80;;;;;;;;;;5280647;27;20276;-82
2024/04/23 09:01:01;;;;;;;0.77;0.77;;;;;;;;;;5289867;27;20236;-81
2024/04/23 09:03:42;;;;;;;0.80;0.80;;;;;;;;;;5323830;27;20217;-80
2024/04/23 09:06:10;;;;;;;1.00;1.00;;;;;;;;;;5288580;27;20235;-83
2024/04/23 09:08:38;;;;;;;1.23;1.23;;;;;;;;;;5320409;27;20224;-83
2024/04/23 09:11:06;;;;;;;0.90;0.90;;;;;;;;;;5568612;21;20548;-82
2024/04/23 09:13:34;;;;;;;1.33;1.33;;;;;;;;;;5402014;26;20542;-84
2024/04/23 09:16:02;;;;;;;0.80;0.80;;;;;;;;;;5396743;26;20519;-83
2024/04/23 09:18:31;;;;;;;1.20;1.20;;;;;;;;;;5396720;26;20461;-83
2024/04/23 09:20:59;;;;;;;0.93;0.93;;;;;;;;;;5397937;26;20452;-87
2024/04/23 09:23:27;;;;;;;0.80;0.80;;;;;;;;;;5393640;26;20501;-85
2024/04/23 09:26:05;;;;;;;0.80;0.80;;;;;;;;;;5381143;26;20481;-82
2024/04/23 09:28:36;;;;;;;0.70;0.70;;;;;;;;;;5394143;26;20227;-82
2024/04/23 09:31:04;;;;;;;0.80;0.80;;;;;;;;;;5382600;26;20303;-84
2024/04/23 09:33:32;;;;;;;1.98;1.88;;;;;;;;;;5397797;26;20273;-83
2024/04/23 09:35:59;;;;;;;1.10;1.10;;;;;;;;;;5395042;26;20253;-83
2024/04/23 09:38:27;;;;;;;0.70;0.70;;;;;;;;;;5393656;26;20285;-81
2024/04/23 09:40:54;;;;;;;0.98;0.98;;;;;;;;;;5393138;26;20218;-84
2024/04/23 09:43:22;;;;;;;1.05;1.05;;;;;;;;;;5383921;26;20223;-86
2024/04/23 09:45:50;;;;;;;0.70;0.70;;;;;;;;;;5392061;26;20309;-84
2024/04/23 09:48:39;;;;;;;0.60;0.60;;;;;;;;;;5396173;26;20256;-84
2024/04/23 09:51:07;;;;;;;0.80;0.80;;;;;;;;;;5396128;26;20280;-84
2024/04/23 09:53:38;;;;;;;0.70;0.70;;;;;;;;;;5390900;26;20255;-88
2024/04/23 09:56:07;;;;;;;0.70;0.70;;;;;;;;;;5369240;26;20221;-84
2024/04/23 09:58:35;;;;;;;2.20;2.10;;;;;;;;;;5394564;26;20256;-83
2024/04/23 10:01:02;;;;;;;1.25;1.25;;;;;;;;;;5393668;26;20302;-85
2024/04/23 10:03:30;;;;;;;1.33;1.23;;;;;;;;;;5393852;26;20263;-86
2024/04/23 10:06:03;;;;;;;2.15;1.25;;;;;;;;;;5401436;26;20219;-85
2024/04/23 10:08:40;;;;;;;1.10;1.10;;;;;;;;;;5417175;26;20277;-85
2024/04/23 10:11:10;;;;;;;1.83;1.73;;;;;;;;;;5373305;26;20228;-83
2024/04/23 10:13:41;;;;;;;0.85;0.85;;;;;;;;;;5395013;26;20220;-82
2024/04/23 10:16:17;;;;;;;1.10;1.10;;;;;;;;;;5395900;26;20263;-90
2024/04/23 10:18:51;;;;;;;0.70;0.70;;;;;;;;;;5395978;26;20251;-80
2024/04/23 10:21:21;;;;;;;0.95;0.95;;;;;;;;;;5389379;26;20233;-83
2024/04/23 10:23:51;;;;;;;0.70;0.70;;;;;;;;;;5388521;26;20219;-84
2024/04/23 10:26:18;;;;;;;1.20;1.10;;;;;;;;;;5408422;26;20219;-82
2024/04/23 10:28:46;;;;;;;1.63;1.30;;;;;;;;;;5407594;26;20255;-83
2024/04/23 10:31:14;;;;;;;1.05;1.05;;;;;;;;;;5397059;26;20310;-85
2024/04/23 10:33:42;;;;;;;1.65;1.60;;;;;;;;;;5399406;26;20217;-83
2024/04/23 10:36:12;;;;;;;0.80;0.80;;;;;;;;;;5386133;26;20241;-82
2024/04/23 10:38:42;;;;;;;1.02;1.02;;;;;;;;;;5396149;26;20411;-81
2024/04/23 10:41:12;;;;;;;1.25;1.25;;;;;;;;;;5396231;26;20225;-82
2024/04/23 10:43:43;;;;;;;0.88;0.88;;;;;;;;;;5388888;26;20385;-88
2024/04/23 10:46:11;;;;;;;1.42;1.42;;;;;;;;;;5415021;26;20239;-87
2024/04/23 10:48:38;;;;;;;0.70;0.70;;;;;;;;;;5379577;26;20226;-83
2024/04/23 10:51:06;;;;;;;1.40;1.30;;;;;;;;;;5396788;26;20334;-88
2024/04/23 10:53:40;;;;;;;0.93;0.93;;;;;;;;;;5404010;26;20237;-86
2024/04/23 10:56:08;;;;;;;0.85;0.85;;;;;;;;;;5385171;26;20271;-85
2024/04/23 10:58:38;;;;;;;0.60;0.60;;;;;;;;;;5389120;26;20555;-82
2024/04/23 11:01:05;;;;;;;0.82;0.82;;;;;;;;;;5395211;26;20277;-81
2024/04/23 11:03:36;;;;;;;1.45;1.45;;;;;;;;;;5398235;26;20213;-86
2024/04/23 11:06:04;;;;;;;1.23;1.23;;;;;;;;;;5415163;26;20260;-83
2024/04/23 11:08:36;;;;;;;0.60;0.60;;;;;;;;;;5400156;26;20238;-82
2024/04/23 11:11:04;;;;;;;0.70;0.70;;;;;;;;;;5399323;26;20224;-81
2024/04/23 11:13:42;;;;;;;1.15;1.15;;;;;;;;;;5398087;26;20217;-84
2024/04/23 11:16:14;;;;;;;0.80;0.80;;;;;;;;;;5408820;26;20288;-82
2024/04/23 11:18:42;;;;;;;1.00;1.00;;;;;;;;;;5402315;26;20224;-84
2024/04/23 11:21:10;;;;;;;0.95;0.95;;;;;;;;;;5395506;26;20472;-83
2024/04/23 11:23:40;;;;;;;0.82;0.82;;;;;;;;;;5392316;26;20217;-82
2024/04/23 11:26:11;;;;;;;0.60;0.60;;;;;;;;;;5369536;26;20312;-84
2024/04/23 11:28:39;;;;;;;0.80;0.80;;;;;;;;;;5399627;26;20220;-81
2024/04/23 11:31:07;;;;;;;0.60;0.60;;;;;;;;;;5381014;26;20305;-82
2024/04/23 11:33:34;;;;;;;0.90;0.90;;;;;;;;;;5399116;26;20250;-86
2024/04/23 11:36:03;;;;;;;5.47;4.13;;;;;;;;;;5392575;26;20466;-79
2024/04/23 11:38:42;;;;;;;0.90;0.90;;;;;;;;;;5396053;26;20237;-79
2024/04/23 11:41:16;;;;;;;1.00;1.00;;;;;;;;;;5384182;26;20378;-84
2024/04/23 11:43:45;;;;;;;1.45;1.35;;;;;;;;;;5398605;26;20274;-86
2024/04/23 11:46:16;;;;;;;1.45;1.38;;;;;;;;;;5399248;26;20307;-86
2024/04/23 11:48:45;;;;;;;0.85;0.85;;;;;;;;;;5414884;26;20247;-85
2024/04/23 11:53:56;;;;;;;0.60;0.60;;;;;;;;;;5396432;21;20293;-80
2024/04/23 11:56:24;;;;;;;0.85;0.85;;;;;;;;;;5364267;26;20636;-82
2024/04/23 11:58:52;;;;;;;1.33;1.23;;;;;;;;;;5368224;26;20287;-80
2024/04/23 12:01:19;;;;;;;0.70;0.70;;;;;;;;;;5389642;26;20663;-85
2024/04/23 12:03:46;;;;;;;2.88;1.08;;;;;;;;;;5361390;26;20222;-89
2024/04/23 12:06:17;;;;;;;0.80;0.80;;;;;;;;;;5362454;26;20315;-85
2024/04/23 12:08:45;;;;;;;0.60;0.60;;;;;;;;;;5390374;26;20308;-87
2024/04/23 12:11:13;;;;;;;0.60;0.60;;;;;;;;;;5362935;26;20222;-79
2024/04/23 12:13:46;;;;;;;0.63;0.63;;;;;;;;;;5388154;26;20238;-85
2024/04/23 12:16:15;;;;;;;1.00;1.00;;;;;;;;;;5361365;26;20472;-86
2024/04/23 12:18:44;;;;;;;2.05;1.73;;;;;;;;;;5361653;26;20259;-79
2024/04/23 12:21:11;;;;;;;0.70;0.70;;;;;;;;;;5382638;26;20222;-87
2024/04/23 12:23:39;;;;;;;0.60;0.60;;;;;;;;;;5362979;26;20223;-83
2024/04/23 12:26:08;;;;;;;1.00;1.00;;;;;;;;;;5346849;26;20219;-83
2024/04/23 12:28:38;;;;;;;1.35;1.25;;;;;;;;;;5360602;26;20303;-81
2024/04/23 12:31:05;;;;;;;0.60;0.60;;;;;;;;;;5361797;26;20289;-85
2024/04/23 12:33:33;;;;;;;0.73;0.73;;;;;;;;;;5363556;26;20286;-86
2024/04/23 12:36:09;;;;;;;1.70;1.13;;;;;;;;;;5365032;26;20230;-81
2024/04/23 12:38:46;;;;;;;0.77;0.77;;;;;;;;;;5358669;26;20269;-81
2024/04/23 12:41:18;;;;;;;0.90;0.90;;;;;;;;;;5359188;26;20485;-86
2024/04/23 12:43:46;;;;;;;0.60;0.60;;;;;;;;;;5361696;26;20253;-80
2024/04/23 12:46:15;;;;;;;2.63;2.47;;;;;;;;;;5359234;26;20227;-84
2024/04/23 12:48:44;;;;;;;0.85;0.85;;;;;;;;;;5327889;26;20475;-84
2024/04/23 12:51:11;;;;;;;1.10;1.10;;;;;;;;;;5359597;26;20234;-88
2024/04/23 12:53:39;;;;;;;1.92;1.83;;;;;;;;;;5362697;26;20235;-88
2024/04/23 12:56:07;;;;;;;0.73;0.73;;;;;;;;;;5348668;26;20264;-83
2024/04/23 12:58:41;;;;;;;0.80;0.80;;;;;;;;;;5522572;21;20487;-84
2024/04/23 13:01:09;;;;;;;0.73;0.73;;;;;;;;;;5386339;26;20240;-81
2024/04/23 13:03:38;;;;;;;1.95;1.85;;;;;;;;;;5400761;26;20272;-84
2024/04/23 13:06:06;;;;;;;1.30;1.30;;;;;;;;;;5412301;26;20288;-87
2024/04/23 13:08:35;;;;;;;1.75;1.70;;;;;;;;;;5396067;26;20218;-82
2024/04/23 13:11:02;;;;;;;2.78;2.58;;;;;;;;;;5394569;26;20257;-82
2024/04/23 13:13:31;;;;;;;1.00;1.00;;;;;;;;;;5393219;26;20552;-83
2024/04/23 13:16:00;;;;;;;1.50;1.40;;;;;;;;;;5388487;26;20249;-83
2024/04/23 13:18:27;;;;;;;0.70;0.70;;;;;;;;;;5396158;26;20278;-84
2024/04/23 13:20:55;;;;;;;0.90;0.90;;;;;;;;;;5395738;26;20273;-80
2024/04/23 13:23:23;;;;;;;0.90;0.90;;;;;;;;;;5385576;26;20229;-81
2024/04/23 13:25:54;;;;;;;0.90;0.90;;;;;;;;;;5397864;26;20281;-84
2024/04/23 13:28:21;;;;;;;0.82;0.82;;;;;;;;;;5402458;26;20264;-82
2024/04/23 13:30:55;;;;;;;1.10;1.10;;;;;;;;;;5397472;26;20223;-87
2024/04/23 13:33:23;;;;;;;0.80;0.80;;;;;;;;;;5402514;26;20222;-80
2024/04/23 13:35:50;;;;;;;1.75;1.65;;;;;;;;;;5379110;26;20234;-82
2024/04/23 13:38:18;;;;;;;1.30;1.20;;;;;;;;;;5392782;26;20211;-85
2024/04/23 13:40:45;;;;;;;2.60;2.50;;;;;;;;;;5393548;26;20260;-84
2024/04/23 13:43:14;;;;;;;0.80;0.80;;;;;;;;;;5401799;26;20256;-82
2024/04/23 13:45:42;;;;;;;16.98;3.17;;;;;;;;;;5403594;26;20275;-83
2024/04/23 13:48:10;;;;;;;0.90;0.90;;;;;;;;;;5515197;21;21237;-82
2024/04/23 13:50:38;;;;;;;0.70;0.70;;;;;;;;;;5330779;26;20232;-84
2024/04/23 13:53:05;;;;;;;0.60;0.60;;;;;;;;;;5326669;26;20255;-86
2024/04/23 13:55:34;;;;;;;0.90;0.90;;;;;;;;;;5325583;27;20306;-80
2024/04/23 13:58:02;;;;;;;1.27;1.23;;;;;;;;;;5325361;27;20306;-84
2024/04/23 14:00:30;;;;;;;0.80;0.80;;;;;;;;;;5318860;27;20239;-85
2024/04/23 14:02:57;;;;;;;0.93;0.93;;;;;;;;;;5324751;27;20220;-82
2024/04/23 14:05:26;;;;;;;0.70;0.70;;;;;;;;;;5357661;26;20227;-84
2024/04/23 14:07:53;;;;;;;0.70;0.70;;;;;;;;;;5328471;27;20280;-81
2024/04/23 14:10:22;;;;;;;1.52;1.52;;;;;;;;;;5371110;21;20260;-80
2024/04/23 14:12:50;;;;;;;0.65;0.65;;;;;;;;;;5327232;27;20407;-81
2024/04/23 14:15:21;;;;;;;1.52;1.38;;;;;;;;;;5335373;27;20220;-86
2024/04/23 14:17:49;;;;;;;0.60;0.60;;;;;;;;;;5337313;26;20287;-86
2024/04/23 14:20:17;;;;;;;0.73;0.73;;;;;;;;;;5332081;26;20485;-80
2024/04/23 14:22:44;;;;;;;1.33;1.33;;;;;;;;;;5326243;27;20299;-81
2024/04/23 14:25:12;;;;;;;0.80;0.80;;;;;;;;;;5322234;27;20220;-82
2024/04/23 14:27:39;;;;;;;0.70;0.70;;;;;;;;;;5324732;27;20573;-82
2024/04/23 14:30:08;;;;;;;0.80;0.80;;;;;;;;;;5326768;27;20255;-82
2024/04/23 14:32:40;;;;;;;1.90;1.80;;;;;;;;;;5329066;27;20310;-80
2024/04/23 14:35:08;;;;;;;0.70;0.70;;;;;;;;;;5328545;27;20247;-81
2024/04/23 14:37:37;;;;;;;0.70;0.70;;;;;;;;;;5332276;26;20228;-83
2024/04/23 14:40:06;;;;;;;1.90;1.80;;;;;;;;;;5328536;27;20228;-80
2024/04/23 14:42:33;;;;;;;0.90;0.90;;;;;;;;;;5334996;26;20513;-87
2024/04/23 14:45:02;;;;;;;2.10;1.90;;;;;;;;;;5329955;26;20308;-81
2024/04/23 14:47:32;;;;;;;0.70;0.70;;;;;;;;;;5329639;27;20232;-82
2024/04/23 14:50:06;;;;;;;0.70;0.70;;;;;;;;;;5325913;27;20476;-77
2024/04/23 14:52:34;;;;;;;1.50;1.33;;;;;;;;;;5327492;27;20221;-80
2024/04/23 14:55:02;;;;;;;0.80;0.80;;;;;;;;;;5338818;26;20243;-81
2024/04/23 14:57:29;;;;;;;1.02;1.02;;;;;;;;;;5334167;26;20255;-81
2024/04/23 14:59:57;;;;;;;0.80;0.80;;;;;;;;;;5339086;26;20444;-81
2024/04/23 15:02:24;;;;;;;0.60;0.60;;;;;;;;;;5325153;26;20220;-81
2024/04/23 15:04:51;;;;;;;0.60;0.60;;;;;;;;;;5325914;26;20220;-82
2024/04/23 15:07:19;;;;;;;1.20;1.20;;;;;;;;;;5329842;27;20216;-83
2024/04/23 15:09:47;;;;;;;0.63;0.63;;;;;;;;;;5325874;27;20268;-81
2024/04/23 15:12:14;;;;;;;0.73;0.73;;;;;;;;;;5324894;26;20288;-80